Aérodrome :
LOGIN :

S'inscrire | Disclaimer

   EN    FR    IT 

 










Légende :    VFR   VFR Marginal   IFR   IFR Intensif   IFR Très Intensif
Visi : 
Plafond : 
>= 8 km
>= 3000ft
5 à 8 km
1000 à 3000 ft
1500m à 5 km
500 à 1000 ft
800 à 1500m
200 à 500 ft
< 800m
< 200 ft
Symboles :   Orages  Brouillard  Fortes neiges  Fortes précipitations  Vent > 20 kt
SIGMETs :   Divers  Orages  Givrage  Turbulence  Onde Orograph.  Cendres Volcan.







- Altitude de l'aérodrome : 122 ft
- Code IATA : TXL


EDDT - Berlin Tegel Int.

DERNIER METAR :
  • 172250Z 23003KT 190V280 9999 BKN030 01/M01 Q1023

METARs EXPIRÉS :
  • 172220Z 21003KT 180V260 9999 BKN033 01/M01 Q1023
  • 172150Z 16003KT 9999 BKN033 01/M01 Q1023 NOSIG
  • 172120Z VRB02KT 9999 FEW026 BKN030 01/M01 Q1023 NOSIG
  • 172050Z 25002KT 9999 FEW026 BKN030 01/M01 Q1023 NOSIG
  • 172020Z 29003KT 9999 BKN030 01/M01 Q1023 NOSIG

TAF TAF EDDT
Valide du 17 à 18h jusqu'au 18 à 18h UTC


171700Z 1718/1818 28005KT 9999 BKN025
BECMG 1720/1723 20004KT
BECMG 1800/1803 14005KT
Pas de NOTAMs connus pour ce terrain.



MET'MAP, la Météo Aéronautique d'un coup d'oeil ! - Copyright ORBIFLY Décembre 2007 - Disclaimer

ORBIFLY MET'MAP TEAM :

Programmation & Développement : Alexandra Zaïnal
Conception & Développement : Baudouin d'Aumeries
Co-Programmation & Développement : Marc-Olivier Méhu
Soutien technique & logistique : Manuel Goepfert

Contact : metmap@orbifly.com




SOURCES & CREDITS :

   NOAA